Time;durP1;ratioP1;P1;durP2;ratioP2;P2;SDS_P1;SDS_P2;PMS_P1;PMS_P2;Temp;Humidity;BMP_temperature;BMP_pressure;BME280_temperature;BME280_humidity;BME280_pressure;Samples;Min_cycle;Max_cycle;Signal;HPM_P1;HPM_P2
2023/06/14 00:01:47;;;;;;;;;;;17.80;67.90;;;;;;5133767;27;19954;-43
2023/06/14 00:04:13;;;;;;;;;;;17.80;67.90;;;;;;5133237;27;19914;-44
2023/06/14 00:06:38;;;;;;;;;;;17.70;67.80;;;;;;5134037;27;20018;-44
2023/06/14 00:09:04;;;;;;;;;;;17.70;68.10;;;;;;5134087;27;19915;-44
2023/06/14 00:11:30;;;;;;;;;;;17.60;67.80;;;;;;5133240;27;19914;-44
2023/06/14 00:13:56;;;;;;;;;;;17.60;67.80;;;;;;5134002;27;19930;-46
2023/06/14 00:16:22;;;;;;;;;;;17.60;67.70;;;;;;5133884;27;20370;-44
2023/06/14 00:18:48;;;;;;;;;;;17.60;68.50;;;;;;5133210;27;19907;-44
2023/06/14 00:21:14;;;;;;;;;;;17.50;68.70;;;;;;5133720;27;19923;-45
2023/06/14 00:23:39;;;;;;;;;;;17.50;68.90;;;;;;5133896;27;19908;-44
2023/06/14 00:26:05;;;;;;;;;;;17.40;69.10;;;;;;5133229;27;19915;-46
2023/06/14 00:28:30;;;;;;;;;;;17.30;69.30;;;;;;5133684;27;19968;-48
2023/06/14 00:30:56;;;;;;;;;;;17.30;69.60;;;;;;5133470;27;19911;-45
2023/06/14 00:33:21;;;;;;;;;;;17.30;69.60;;;;;;5132492;28;19960;-44
2023/06/14 00:35:47;;;;;;;;;;;17.20;70.00;;;;;;5133345;28;19907;-44
2023/06/14 00:38:12;;;;;;;;;;;17.20;70.10;;;;;;5133732;28;19960;-48
2023/06/14 00:40:38;;;;;;;;;;;17.20;70.50;;;;;;5132719;28;19915;-44
2023/06/14 00:43:03;;;;;;;;;;;17.10;70.80;;;;;;5133747;28;20437;-45
2023/06/14 00:45:31;;;;;;;;;;;17.10;70.90;;;;;;5133045;28;20397;-49
2023/06/14 00:47:57;;;;;;;;;;;17.10;70.90;;;;;;5133562;28;19907;-46
2023/06/14 00:50:23;;;;;;;;;;;17.10;71.50;;;;;;5133583;28;20354;-43
2023/06/14 00:52:49;;;;;;;;;;;17.00;71.20;;;;;;5132977;28;19911;-44
2023/06/14 00:55:15;;;;;;;;;;;17.00;72.10;;;;;;5133514;28;19907;-44
2023/06/14 00:57:41;;;;;;;;;;;16.90;71.20;;;;;;5133196;28;19912;-45
2023/06/14 01:00:09;;;;;;;;;;;16.90;72.30;;;;;;5132244;28;19911;-43
2023/06/14 01:02:37;;;;;;;;;;;16.80;71.90;;;;;;5133335;28;19918;-43
2023/06/14 01:05:03;;;;;;;;;;;16.90;72.60;;;;;;5133512;28;19908;-45
2023/06/14 01:07:29;;;;;;;;;;;16.80;72.40;;;;;;5132794;28;19913;-48
2023/06/14 01:10:10;;;;;;;;;;;16.80;72.60;;;;;;5133389;28;19954;-46
2023/06/14 01:12:54;;;;;;;;;;;16.70;73.10;;;;;;5133318;27;19930;-43
2023/06/14 01:15:20;;;;;;;;;;;16.70;73.10;;;;;;5136524;27;19914;-45
2023/06/14 01:17:51;;;;;;;;;;;16.70;73.70;;;;;;5137274;27;19907;-44
2023/06/14 01:20:17;;;;;;;;;;;16.60;74.00;;;;;;5137201;27;19927;-49
2023/06/14 01:22:53;;;;;;;;;;;16.60;74.30;;;;;;5136368;27;19907;-48
2023/06/14 01:25:22;;;;;;;;;;;16.60;74.50;;;;;;5137025;27;19953;-43
2023/06/14 01:27:52;;;;;;;;;;;16.50;75.20;;;;;;5136344;27;19911;-44
2023/06/14 01:30:19;;;;;;;;;;;16.50;75.30;;;;;;5136763;27;19918;-44
2023/06/14 01:32:45;;;;;;;;;;;16.50;75.90;;;;;;5136957;27;19911;-47
2023/06/14 01:35:11;;;;;;;;;;;16.40;75.10;;;;;;5136271;27;20014;-47
2023/06/14 01:37:36;;;;;;;;;;;16.40;75.50;;;;;;5136374;27;20341;-44
2023/06/14 01:40:03;;;;;;;;;;;16.30;77.20;;;;;;5136737;27;19965;-46
2023/06/14 01:42:29;;;;;;;;;;;16.30;76.50;;;;;;5136165;27;19915;-44
2023/06/14 01:44:55;;;;;;;;;;;16.30;77.20;;;;;;5136776;27;20399;-47
2023/06/14 01:47:21;;;;;;;;;;;16.30;77.60;;;;;;5136917;27;20392;-43
2023/06/14 01:49:46;;;;;;;;;;;16.30;77.60;;;;;;5135960;27;19954;-48
2023/06/14 01:52:13;;;;;;;;;;;16.20;78.10;;;;;;5136386;27;19911;-44
2023/06/14 01:54:41;;;;;;;;;;;16.20;78.30;;;;;;5136554;27;19914;-45
2023/06/14 01:57:07;;;;;;;;;;;16.20;78.30;;;;;;5135844;27;19951;-45
2023/06/14 01:59:34;;;;;;;;;;;16.20;78.80;;;;;;5136098;27;19916;-45
2023/06/14 02:02:01;;;;;;;;;;;16.20;79.60;;;;;;5136370;27;19919;-43
2023/06/14 02:04:26;;;;;;;;;;;16.10;79.40;;;;;;5135619;27;19908;-47
2023/06/14 02:06:52;;;;;;;;;;;16.10;80.30;;;;;;5136175;27;19912;-46
2023/06/14 02:09:18;;;;;;;;;;;16.10;80.30;;;;;;5136318;27;19907;-45
2023/06/14 02:11:43;;;;;;;;;;;16.10;80.70;;;;;;5135569;27;20065;-44
2023/06/14 02:14:11;;;;;;;;;;;16.00;80.70;;;;;;5135739;27;19915;-44
2023/06/14 02:16:38;;;;;;;;;;;16.00;80.50;;;;;;5115794;28;19920;-47
2023/06/14 02:19:04;;;;;;;;;;;16.00;81.90;;;;;;5114843;28;19914;-45
2023/06/14 02:21:30;;;;;;;;;;;16.00;81.70;;;;;;5115285;28;19916;-44
2023/06/14 02:23:55;;;;;;;;;;;16.00;82.30;;;;;;5115321;28;20401;-51
2023/06/14 02:26:22;;;;;;;;;;;15.90;82.20;;;;;;5114937;28;20282;-45
2023/06/14 02:28:48;;;;;;;;;;;15.90;82.30;;;;;;5115223;28;20384;-46
2023/06/14 02:31:13;;;;;;;;;;;15.90;83.40;;;;;;5114526;28;20002;-46
2023/06/14 02:33:39;;;;;;;;;;;15.80;83.70;;;;;;5115055;28;19953;-47
2023/06/14 02:36:05;;;;;;;;;;;15.80;84.50;;;;;;5114946;28;19991;-47
2023/06/14 02:38:30;;;;;;;;;;;15.80;83.50;;;;;;5114349;28;19998;-44
2023/06/14 02:40:56;;;;;;;;;;;15.80;84.10;;;;;;5115091;28;20010;-43
2023/06/14 02:43:21;;;;;;;;;;;15.80;84.50;;;;;;5115080;28;19911;-45
2023/06/14 02:45:47;;;;;;;;;;;15.80;84.50;;;;;;5127784;27;20002;-45
2023/06/14 02:48:12;;;;;;;;;;;15.70;85.60;;;;;;5135598;27;19915;-45
2023/06/14 02:50:37;;;;;;;;;;;15.70;85.90;;;;;;5135395;27;19914;-45
2023/06/14 02:53:03;;;;;;;;;;;15.70;86.40;;;;;;5134309;27;19916;-46
2023/06/14 02:55:28;;;;;;;;;;;15.70;86.70;;;;;;5135167;27;20397;-46
2023/06/14 02:57:54;;;;;;;;;;;15.70;86.90;;;;;;5135349;27;20269;-43
2023/06/14 03:00:20;;;;;;;;;;;15.60;86.80;;;;;;5134428;27;19916;-43
2023/06/14 03:02:45;;;;;;;;;;;15.60;87.30;;;;;;5135207;27;19915;-45
2023/06/14 03:05:11;;;;;;;;;;;15.60;87.30;;;;;;5135237;27;19908;-46
2023/06/14 03:07:40;;;;;;;;;;;15.60;87.40;;;;;;5134281;27;19914;-46
2023/06/14 03:10:08;;;;;;;;;;;15.60;88.00;;;;;;5135195;27;19915;-45
2023/06/14 03:12:33;;;;;;;;;;;15.50;88.10;;;;;;5134979;27;19951;-44
2023/06/14 03:15:03;;;;;;;;;;;15.60;89.00;;;;;;5133862;27;19992;-45
2023/06/14 03:17:30;;;;;;;;;;;15.50;89.10;;;;;;5134772;27;19911;-43
2023/06/14 03:19:55;;;;;;;;;;;15.50;89.00;;;;;;5134877;27;19907;-47
2023/06/14 03:22:21;;;;;;;;;;;15.50;89.30;;;;;;5134016;27;19973;-48
2023/06/14 03:24:47;;;;;;;;;;;15.50;89.90;;;;;;5134752;27;19908;-46
2023/06/14 03:27:14;;;;;;;;;;;15.40;90.00;;;;;;5134772;27;20380;-51
2023/06/14 03:29:39;;;;;;;;;;;15.40;90.10;;;;;;5134368;27;19915;-46
2023/06/14 03:32:05;;;;;;;;;;;15.40;90.40;;;;;;5134714;27;19911;-44
2023/06/14 03:34:31;;;;;;;;;;;15.40;90.40;;;;;;5133743;27;20331;-44
2023/06/14 03:36:56;;;;;;;;;;;15.40;90.70;;;;;;5115244;27;20013;-44
2023/06/14 03:39:22;;;;;;;;;;;15.40;90.80;;;;;;5134529;27;19911;-46
2023/06/14 03:41:47;;;;;;;;;;;15.40;90.90;;;;;;5133600;27;19998;-45
2023/06/14 03:44:17;;;;;;;;;;;15.30;91.20;;;;;;5134442;27;19947;-45
2023/06/14 03:46:42;;;;;;;;;;;15.30;91.10;;;;;;5134021;27;19908;-48
2023/06/14 03:49:08;;;;;;;;;;;15.30;91.30;;;;;;5133484;27;19911;-44
2023/06/14 03:51:35;;;;;;;;;;;15.30;91.40;;;;;;5134303;27;19907;-45
2023/06/14 03:54:00;;;;;;;;;;;15.30;91.50;;;;;;5134317;27;19952;-46
2023/06/14 03:56:26;;;;;;;;;;;15.30;91.80;;;;;;5133440;27;19907;-43
2023/06/14 03:58:52;;;;;;;;;;;15.30;92.00;;;;;;5134058;27;20373;-45
2023/06/14 04:01:17;;;;;;;;;;;15.40;92.20;;;;;;5133338;27;19965;-46
2023/06/14 04:03:43;;;;;;;;;;;15.40;92.20;;;;;;5132122;27;20422;-45
2023/06/14 04:06:09;;;;;;;;;;;15.40;92.20;;;;;;5132968;27;19936;-43
2023/06/14 04:08:34;;;;;;;;;;;15.40;92.40;;;;;;5132832;27;19998;-48
2023/06/14 04:11:00;;;;;;;;;;;15.40;92.60;;;;;;5132813;27;20373;-45
2023/06/14 04:13:26;;;;;;;;;;;15.40;92.60;;;;;;5133459;27;19970;-45
2023/06/14 04:15:51;;;;;;;;;;;15.40;92.80;;;;;;5133066;27;19965;-46
2023/06/14 04:18:17;;;;;;;;;;;15.40;93.10;;;;;;5132439;27;19912;-46
2023/06/14 04:20:43;;;;;;;;;;;15.50;93.20;;;;;;5133262;27;19922;-44
2023/06/14 04:23:17;;;;;;;;;;;15.50;93.40;;;;;;5132111;27;19907;-46
2023/06/14 04:25:44;;;;;;;;;;;15.50;93.30;;;;;;5143982;27;20002;-46
2023/06/14 04:28:11;;;;;;;;;;;15.50;93.60;;;;;;5129303;27;19908;-46
2023/06/14 04:30:38;;;;;;;;;;;15.50;93.80;;;;;;5135963;27;19919;-44
2023/06/14 04:33:05;;;;;;;;;;;15.50;93.90;;;;;;5124776;27;19933;-44
2023/06/14 04:35:32;;;;;;;;;;;15.60;94.00;;;;;;5116920;28;19911;-47
2023/06/14 04:37:58;;;;;;;;;;;15.60;94.20;;;;;;5114410;27;19920;-43
2023/06/14 04:40:23;;;;;;;;;;;15.60;94.40;;;;;;5117553;28;19919;-49
2023/06/14 04:42:50;;;;;;;;;;;15.60;94.60;;;;;;5118687;28;19908;-43
2023/06/14 04:45:16;;;;;;;;;;;15.60;94.70;;;;;;5116598;28;19956;-45
2023/06/14 04:47:43;;;;;;;;;;;15.70;95.10;;;;;;5118817;27;20412;-44
2023/06/14 04:50:10;;;;;;;;;;;15.70;95.30;;;;;;5136235;27;19992;-46
2023/06/14 04:52:36;;;;;;;;;;;15.70;95.30;;;;;;5116805;27;19954;-45
2023/06/14 04:55:02;;;;;;;;;;;15.70;95.40;;;;;;5132933;27;20399;-44
2023/06/14 04:57:28;;;;;;;;;;;15.70;95.50;;;;;;5137668;27;20004;-44
2023/06/14 04:59:54;;;;;;;;;;;15.70;95.30;;;;;;5124961;27;19907;-44
2023/06/14 05:02:21;;;;;;;;;;;15.70;95.90;;;;;;5130978;27;20374;-43
2023/06/14 05:04:47;;;;;;;;;;;15.80;95.90;;;;;;5136633;27;20366;-45
2023/06/14 05:07:14;;;;;;;;;;;15.80;96.20;;;;;;5136684;27;19961;-48
2023/06/14 05:09:39;;;;;;;;;;;15.80;96.20;;;;;;5137225;27;20001;-44
2023/06/14 05:12:08;;;;;;;;;;;15.90;96.00;;;;;;5129822;27;20365;-46
2023/06/14 05:14:33;;;;;;;;;;;15.90;96.10;;;;;;5131174;27;19912;-47
2023/06/14 05:16:59;;;;;;;;;;;15.90;96.00;;;;;;5137370;27;20411;-45
2023/06/14 05:19:24;;;;;;;;;;;15.90;95.90;;;;;;5137275;27;20412;-48
2023/06/14 05:21:50;;;;;;;;;;;16.00;96.40;;;;;;5136519;27;19930;-45
2023/06/14 05:24:17;;;;;;;;;;;16.00;96.50;;;;;;5136931;27;19934;-47
2023/06/14 05:26:43;;;;;;;;;;;16.10;96.10;;;;;;5137125;27;19998;-43
2023/06/14 05:29:08;;;;;;;;;;;16.10;96.70;;;;;;5136285;27;19982;-47
2023/06/14 05:31:34;;;;;;;;;;;16.10;96.90;;;;;;5137012;27;19907;-46
2023/06/14 05:34:00;;;;;;;;;;;16.10;96.60;;;;;;5136334;27;20360;-45
2023/06/14 05:36:27;;;;;;;;;;;16.20;96.60;;;;;;5132980;27;19920;-45
2023/06/14 05:38:57;;;;;;;;;;;16.30;96.90;;;;;;5131538;27;19937;-44
2023/06/14 05:41:24;;;;;;;;;;;16.30;96.90;;;;;;5118153;27;19939;-48
2023/06/14 05:43:50;;;;;;;;;;;16.30;96.60;;;;;;5123692;27;20355;-45
2023/06/14 05:46:15;;;;;;;;;;;16.40;96.50;;;;;;5127072;27;19919;-47
2023/06/14 05:48:40;;;;;;;;;;;16.40;96.30;;;;;;5121203;27;20297;-46
2023/06/14 05:51:08;;;;;;;;;;;16.50;96.30;;;;;;5125133;27;19908;-44
2023/06/14 05:53:34;;;;;;;;;;;16.60;96.50;;;;;;5135169;27;20002;-45
2023/06/14 05:56:00;;;;;;;;;;;16.70;96.30;;;;;;5123556;27;19999;-46
2023/06/14 05:58:25;;;;;;;;;;;16.70;95.70;;;;;;5131527;27;19911;-48
2023/06/14 06:00:53;;;;;;;;;;;16.80;96.10;;;;;;5134466;27;19923;-44
2023/06/14 06:03:19;;;;;;;;;;;16.90;96.00;;;;;;5133619;27;19912;-44
2023/06/14 06:05:44;;;;;;;;;;;16.90;95.80;;;;;;5132509;27;19963;-46
2023/06/14 06:08:10;;;;;;;;;;;17.00;95.90;;;;;;5132113;27;20010;-46
2023/06/14 06:10:35;;;;;;;;;;;17.10;95.10;;;;;;5133889;27;20349;-47
2023/06/14 06:13:01;;;;;;;;;;;17.10;95.20;;;;;;5128865;27;19918;-43
2023/06/14 06:15:26;;;;;;;;;;;17.20;95.20;;;;;;5131426;27;19956;-46
2023/06/14 06:17:52;;;;;;;;;;;17.30;94.40;;;;;;5133145;27;19915;-44
2023/06/14 06:20:17;;;;;;;;;;;17.40;94.50;;;;;;5128889;27;19973;-46
2023/06/14 06:22:43;;;;;;;;;;;17.50;94.20;;;;;;5133361;27;19915;-44
2023/06/14 06:25:08;;;;;;;;;;;17.50;94.20;;;;;;5125996;27;20298;-44
2023/06/14 06:27:37;;;;;;;;;;;17.60;93.80;;;;;;5118874;27;19939;-45
2023/06/14 06:30:03;;;;;;;;;;;17.70;93.70;;;;;;5124026;27;19999;-44
2023/06/14 06:32:28;;;;;;;;;;;17.70;94.00;;;;;;5129419;27;20025;-43
2023/06/14 06:34:54;;;;;;;;;;;17.80;93.80;;;;;;5119043;27;19912;-43
2023/06/14 06:37:19;;;;;;;;;;;17.90;93.80;;;;;;5134063;27;20316;-47
2023/06/14 06:39:45;;;;;;;;;;;18.00;93.60;;;;;;5135485;27;19912;-47
2023/06/14 06:42:11;;;;;;;;;;;18.00;93.10;;;;;;5132367;27;19931;-48
2023/06/14 06:44:37;;;;;;;;;;;18.10;92.90;;;;;;5128562;27;19996;-44
2023/06/14 06:47:02;;;;;;;;;;;18.20;93.10;;;;;;5131244;27;20006;-47
2023/06/14 06:49:28;;;;;;;;;;;18.20;93.50;;;;;;5129096;27;20575;-44
2023/06/14 06:52:04;;;;;;;;;;;18.30;93.30;;;;;;5125659;27;19915;-46
2023/06/14 06:54:29;;;;;;;;;;;18.40;92.30;;;;;;5114823;27;20363;-43
2023/06/14 06:56:55;;;;;;;;;;;18.50;91.70;;;;;;5125679;27;19964;-45
2023/06/14 06:59:21;;;;;;;;;;;18.60;92.20;;;;;;5130463;27;20053;-46
2023/06/14 07:01:46;;;;;;;;;;;18.70;92.80;;;;;;5114728;28;20049;-45
2023/06/14 07:04:12;;;;;;;;;;;18.80;91.80;;;;;;5132310;27;20001;-44
2023/06/14 07:06:37;;;;;;;;;;;18.80;91.60;;;;;;5116228;27;19968;-45
2023/06/14 07:09:07;;;;;;;;;;;18.90;91.60;;;;;;5114477;28;19915;-48
2023/06/14 07:11:33;;;;;;;;;;;19.00;91.20;;;;;;5123327;27;19959;-47
2023/06/14 07:13:59;;;;;;;;;;;19.10;90.80;;;;;;5125127;27;20012;-44
2023/06/14 07:16:25;;;;;;;;;;;19.10;90.80;;;;;;5117473;27;20487;-44
2023/06/14 07:18:51;;;;;;;;;;;19.20;90.80;;;;;;5129828;27;19912;-45
2023/06/14 07:21:16;;;;;;;;;;;19.30;90.10;;;;;;5117245;27;20389;-43
2023/06/14 07:23:42;;;;;;;;;;;19.40;90.00;;;;;;5135373;27;20011;-44
2023/06/14 07:26:07;;;;;;;;;;;19.40;90.10;;;;;;5135582;27;19912;-43
2023/06/14 07:28:33;;;;;;;;;;;19.50;89.90;;;;;;5134937;27;20239;-44
2023/06/14 07:30:58;;;;;;;;;;;19.60;89.50;;;;;;5114985;27;19960;-43
2023/06/14 07:33:23;;;;;;;;;;;19.70;89.60;;;;;;5125723;27;19916;-47
2023/06/14 07:35:49;;;;;;;;;;;19.80;89.10;;;;;;5134664;27;20010;-44
2023/06/14 07:38:15;;;;;;;;;;;19.90;89.00;;;;;;5133834;27;20487;-44
2023/06/14 07:40:40;;;;;;;;;;;20.00;87.50;;;;;;5115843;27;20027;-45
2023/06/14 07:43:06;;;;;;;;;;;20.00;88.60;;;;;;5114600;28;19907;-44
2023/06/14 07:45:31;;;;;;;;;;;20.10;87.10;;;;;;5114708;28;19908;-43
2023/06/14 07:47:57;;;;;;;;;;;20.20;86.60;;;;;;5114122;28;19908;-46
2023/06/14 07:50:22;;;;;;;;;;;20.30;85.60;;;;;;5114485;28;20290;-43
2023/06/14 07:52:48;;;;;;;;;;;20.30;84.80;;;;;;5114343;28;20014;-43
2023/06/14 07:55:15;;;;;;;;;;;20.40;84.90;;;;;;5113900;28;19908;-48
2023/06/14 07:57:40;;;;;;;;;;;20.40;85.10;;;;;;5114506;28;19962;-45
2023/06/14 08:00:06;;;;;;;;;;;20.50;84.50;;;;;;5119382;27;20008;-44
2023/06/14 08:02:32;;;;;;;;;;;20.60;84.90;;;;;;5134260;27;19916;-43
2023/06/14 08:04:58;;;;;;;;;;;20.60;84.10;;;;;;5134817;27;19914;-45
2023/06/14 08:07:24;;;;;;;;;;;20.70;83.80;;;;;;5134719;27;19908;-46
2023/06/14 08:09:49;;;;;;;;;;;20.80;83.30;;;;;;5134406;27;19923;-48
2023/06/14 08:12:15;;;;;;;;;;;20.90;83.90;;;;;;5134603;27;19933;-44
2023/06/14 08:14:41;;;;;;;;;;;21.00;83.90;;;;;;5134528;27;19908;-50
2023/06/14 08:17:07;;;;;;;;;;;21.00;83.20;;;;;;5132974;27;20002;-47
2023/06/14 08:19:32;;;;;;;;;;;21.10;82.40;;;;;;5125902;27;19951;-47
2023/06/14 08:21:58;;;;;;;;;;;21.20;81.10;;;;;;5131508;27;19927;-45
2023/06/14 08:24:29;;;;;;;;;;;21.30;81.20;;;;;;5133990;27;20006;-46
2023/06/14 08:26:56;;;;;;;;;;;21.30;81.10;;;;;;5134723;27;19931;-45
2023/06/14 08:29:21;;;;;;;;;;;21.40;81.50;;;;;;5121494;27;19912;-45
2023/06/14 08:31:47;;;;;;;;;;;21.50;80.80;;;;;;5113557;28;19908;-45
2023/06/14 08:34:13;;;;;;;;;;;21.50;79.10;;;;;;5113837;28;20324;-45
2023/06/14 08:36:38;;;;;;;;;;;21.70;80.40;;;;;;5113568;28;19923;-45
2023/06/14 08:39:04;;;;;;;;;;;21.70;79.80;;;;;;5113444;28;20290;-44
2023/06/14 08:41:29;;;;;;;;;;;21.80;79.50;;;;;;5113694;28;20014;-45
2023/06/14 08:43:56;;;;;;;;;;;21.90;78.60;;;;;;5113319;28;19908;-45
2023/06/14 08:46:25;;;;;;;;;;;22.00;78.70;;;;;;5113728;28;19907;-46
2023/06/14 08:48:51;;;;;;;;;;;22.00;78.80;;;;;;5113653;28;19943;-47
2023/06/14 08:51:19;;;;;;;;;;;22.20;78.30;;;;;;5123446;28;19954;-48
2023/06/14 08:53:45;;;;;;;;;;;22.20;78.40;;;;;;5132434;28;19915;-45
2023/06/14 08:56:13;;;;;;;;;;;22.20;78.00;;;;;;5128765;28;20286;-45
2023/06/14 08:58:45;;;;;;;;;;;22.20;77.60;;;;;;5130464;28;19911;-46
2023/06/14 09:01:14;;;;;;;;;;;22.30;77.50;;;;;;5118095;28;19920;-44
2023/06/14 09:03:40;;;;;;;;;;;22.40;78.00;;;;;;5116062;28;19953;-44
2023/06/14 09:06:08;;;;;;;;;;;22.50;77.20;;;;;;5127573;28;19947;-43
2023/06/14 09:08:35;;;;;;;;;;;22.60;75.80;;;;;;5113352;28;19937;-46
2023/06/14 09:11:04;;;;;;;;;;;22.70;76.30;;;;;;5113663;28;20244;-45
2023/06/14 09:13:30;;;;;;;;;;;22.70;75.80;;;;;;5123513;28;19907;-49
2023/06/14 09:15:55;;;;;;;;;;;22.80;76.10;;;;;;5112536;28;19918;-46
2023/06/14 09:18:21;;;;;;;;;;;22.90;75.40;;;;;;5119187;28;20362;-46
2023/06/14 09:20:48;;;;;;;;;;;23.00;76.10;;;;;;5130479;28;19971;-46
2023/06/14 09:23:13;;;;;;;;;;;23.00;76.10;;;;;;5133750;28;19911;-44
2023/06/14 09:25:43;;;;;;;;;;;23.00;74.90;;;;;;5134003;28;19911;-44
2023/06/14 09:28:09;;;;;;;;;;;23.10;74.40;;;;;;5133400;28;19969;-46
2023/06/14 09:30:36;;;;;;;;;;;23.10;74.20;;;;;;5133425;28;19953;-46
2023/06/14 09:33:01;;;;;;;;;;;23.20;74.20;;;;;;5133448;27;19911;-44
2023/06/14 09:35:29;;;;;;;;;;;23.30;72.60;;;;;;5136832;27;19908;-47
2023/06/14 09:37:55;;;;;;;;;;;23.30;72.40;;;;;;5137429;27;20010;-45
2023/06/14 09:40:21;;;;;;;;;;;23.40;71.80;;;;;;5137042;27;20453;-45
2023/06/14 09:42:47;;;;;;;;;;;23.40;70.90;;;;;;5137736;27;19915;-45
2023/06/14 09:45:13;;;;;;;;;;;23.50;71.40;;;;;;5137601;27;19915;-48
2023/06/14 09:47:39;;;;;;;;;;;23.60;72.10;;;;;;5136924;27;20266;-45
2023/06/14 09:50:05;;;;;;;;;;;23.70;71.20;;;;;;5137488;27;19907;-47
2023/06/14 09:52:30;;;;;;;;;;;23.70;70.40;;;;;;5137272;27;19907;-45
2023/06/14 09:54:57;;;;;;;;;;;23.80;69.80;;;;;;5136478;27;19964;-45
2023/06/14 09:57:23;;;;;;;;;;;23.90;70.30;;;;;;5128811;27;19920;-43
2023/06/14 09:59:52;;;;;;;;;;;24.00;69.50;;;;;;5133894;27;19912;-47
2023/06/14 10:02:21;;;;;;;;;;;24.00;69.60;;;;;;5136343;27;20412;-44
2023/06/14 10:04:52;;;;;;;;;;;24.10;70.20;;;;;;5137201;27;19929;-46
2023/06/14 10:07:19;;;;;;;;;;;24.20;69.00;;;;;;5137013;27;19907;-45
2023/06/14 10:09:49;;;;;;;;;;;24.40;67.40;;;;;;5130361;27;19947;-46
2023/06/14 10:12:21;;;;;;;;;;;24.40;66.80;;;;;;5134928;27;20331;-46
2023/06/14 10:14:50;;;;;;;;;;;24.40;67.70;;;;;;5116383;27;19918;-44
2023/06/14 10:17:26;;;;;;;;;;;24.40;66.70;;;;;;5135890;27;19953;-45
2023/06/14 10:20:11;;;;;;;;;;;24.40;65.60;;;;;;5115336;28;19981;-43
2023/06/14 10:22:41;;;;;;;;;;;24.50;66.20;;;;;;5075157;27;20015;-44
2023/06/14 10:25:11;;;;;;;;;;;24.60;66.30;;;;;;5135590;27;19907;-46
2023/06/14 10:27:37;;;;;;;;;;;24.60;66.00;;;;;;5135692;27;19911;-44
2023/06/14 10:30:03;;;;;;;;;;;24.70;64.70;;;;;;5134971;27;19918;-45
2023/06/14 10:32:29;;;;;;;;;;;24.70;63.60;;;;;;5125819;27;19916;-45
2023/06/14 10:34:59;;;;;;;;;;;24.70;64.50;;;;;;5134548;27;19919;-44
2023/06/14 10:37:24;;;;;;;;;;;24.70;63.60;;;;;;5133498;27;20390;-44
2023/06/14 10:39:50;;;;;;;;;;;24.70;64.50;;;;;;5118678;27;19958;-46
2023/06/14 10:42:16;;;;;;;;;;;24.80;64.90;;;;;;5114685;28;20274;-44
2023/06/14 10:44:44;;;;;;;;;;;24.90;64.00;;;;;;5120284;27;20611;-44
2023/06/14 10:47:11;;;;;;;;;;;24.80;63.80;;;;;;5128264;27;20374;-46
2023/06/14 10:49:42;;;;;;;;;;;24.90;63.70;;;;;;5134741;27;19916;-49
2023/06/14 10:52:20;;;;;;;;;;;24.90;65.80;;;;;;5134414;27;20003;-46
2023/06/14 10:55:05;;;;;;;;;;;25.10;64.10;;;;;;5135423;27;19919;-43
2023/06/14 10:57:34;;;;;;;;;;;25.20;64.30;;;;;;5134034;27;19921;-46
2023/06/14 11:00:00;;;;;;;;;;;25.20;62.60;;;;;;5128314;27;19919;-44
2023/06/14 11:02:32;;;;;;;;;;;25.20;64.50;;;;;;5134841;27;20357;-44
2023/06/14 11:04:59;;;;;;;;;;;25.30;62.90;;;;;;5135553;27;20386;-44
2023/06/14 11:07:37;;;;;;;;;;;25.40;62.70;;;;;;5135595;27;19908;-46
2023/06/14 11:10:16;;;;;;;;;;;25.40;62.00;;;;;;5136082;27;19907;-46
2023/06/14 11:12:42;;;;;;;;;;;25.40;61.00;;;;;;5135378;27;19915;-44
2023/06/14 11:15:08;;;;;;;;;;;25.40;62.90;;;;;;5135204;27;20428;-46
2023/06/14 11:17:33;;;;;;;;;;;25.50;62.80;;;;;;5134966;27;20014;-45
2023/06/14 11:20:16;;;;;;;;;;;25.60;63.40;;;;;;5131723;27;19951;-46
2023/06/14 11:22:41;;;;;;;;;;;25.70;63.50;;;;;;5114434;28;19915;-44
2023/06/14 11:25:13;;;;;;;;;;;25.70;62.30;;;;;;5114366;28;19908;-44
2023/06/14 11:27:39;;;;;;;;;;;25.70;62.10;;;;;;5113431;28;20030;-44
2023/06/14 11:30:07;;;;;;;;;;;25.60;61.70;;;;;;5115757;27;20717;-46
2023/06/14 11:32:32;;;;;;;;;;;25.60;61.70;;;;;;5112839;28;20354;-48
2023/06/14 11:34:59;;;;;;;;;;;25.60;61.70;;;;;;5133505;27;19918;-44
2023/06/14 11:37:28;;;;;;;;;;;25.70;62.60;;;;;;5134230;27;19955;-43
2023/06/14 11:39:57;;;;;;;;;;;25.80;61.50;;;;;;5132225;27;19969;-45
2023/06/14 11:42:26;;;;;;;;;;;25.90;62.20;;;;;;5129088;27;21439;-49
2023/06/14 11:44:53;;;;;;;;;;;25.80;61.30;;;;;;5113316;28;19912;-44
2023/06/14 11:47:18;;;;;;;;;;;25.80;61.30;;;;;;5124039;27;20122;-49
2023/06/14 11:49:43;;;;;;;;;;;25.80;60.40;;;;;;5126896;27;20406;-44
2023/06/14 11:52:11;;;;;;;;;;;25.80;61.70;;;;;;5133023;27;19911;-43
2023/06/14 11:54:36;;;;;;;;;;;26.00;61.60;;;;;;5120113;27;19916;-46
2023/06/14 11:57:03;;;;;;;;;;;26.00;61.00;;;;;;5122720;27;20397;-47
2023/06/14 11:59:31;;;;;;;;;;;26.10;60.30;;;;;;5117126;27;19919;-44
2023/06/14 12:01:56;;;;;;;;;;;26.30;61.70;;;;;;5123820;27;19923;-46
2023/06/14 12:04:28;;;;;;;;;;;26.40;62.90;;;;;;5116509;27;19912;-45
2023/06/14 12:06:55;;;;;;;;;;;26.50;61.50;;;;;;5129412;27;19953;-45
2023/06/14 12:09:23;;;;;;;;;;;26.50;59.90;;;;;;5127453;27;19934;-45
2023/06/14 12:11:49;;;;;;;;;;;26.50;59.80;;;;;;5133684;27;19947;-47
2023/06/14 12:14:14;;;;;;;;;;;26.50;60.10;;;;;;5134249;27;20343;-44
2023/06/14 12:16:41;;;;;;;;;;;26.40;60.30;;;;;;5121302;27;19915;-46
2023/06/14 12:19:12;;;;;;;;;;;26.30;59.50;;;;;;5131765;27;19915;-50
2023/06/14 12:21:40;;;;;;;;;;;26.40;60.40;;;;;;5134254;27;19974;-47
2023/06/14 12:24:06;;;;;;;;;;;26.50;60.20;;;;;;5128347;27;19908;-45
2023/06/14 12:26:32;;;;;;;;;;;26.70;59.90;;;;;;5113749;27;20393;-45
2023/06/14 12:28:57;;;;;;;;;;;26.80;60.10;;;;;;5120069;27;19908;-46
2023/06/14 12:31:23;;;;;;;;;;;26.80;59.00;;;;;;5113733;28;19951;-45
2023/06/14 12:33:49;;;;;;;;;;;27.00;60.90;;;;;;5130588;27;19915;-46
2023/06/14 12:36:15;;;;;;;;;;;27.20;60.20;;;;;;5133269;27;19920;-48
2023/06/14 12:38:41;;;;;;;;;;;27.50;60.40;;;;;;5134244;28;19912;-43
2023/06/14 12:41:07;;;;;;;;;;;27.60;60.10;;;;;;5132340;28;20107;-49
2023/06/14 12:43:33;;;;;;;;;;;27.60;57.70;;;;;;5113923;28;19911;-45
2023/06/14 12:45:59;;;;;;;;;;;27.70;58.80;;;;;;5113888;28;19908;-46
2023/06/14 12:48:24;;;;;;;;;;;28.00;60.10;;;;;;5128134;28;19908;-46
2023/06/14 12:50:50;;;;;;;;;;;28.30;58.90;;;;;;5117170;28;19915;-46
2023/06/14 12:53:15;;;;;;;;;;;28.60;58.20;;;;;;5132563;27;19922;-48
2023/06/14 12:55:41;;;;;;;;;;;28.90;57.50;;;;;;5132813;28;19914;-47
2023/06/14 12:58:06;;;;;;;;;;;29.10;58.10;;;;;;5149902;27;19911;-46
2023/06/14 13:00:32;;;;;;;;;;;29.40;57.30;;;;;;5133728;27;19915;-47
2023/06/14 13:02:57;;;;;;;;;;;29.70;57.70;;;;;;5133444;27;19937;-46
2023/06/14 13:05:23;;;;;;;;;;;29.80;56.10;;;;;;5131888;28;19955;-46
2023/06/14 13:07:49;;;;;;;;;;;29.90;54.50;;;;;;5132545;27;19990;-47
2023/06/14 13:10:14;;;;;;;;;;;30.10;55.90;;;;;;5136057;27;19973;-46
2023/06/14 13:12:40;;;;;;;;;;;30.20;55.00;;;;;;5136388;27;19961;-44
2023/06/14 13:15:06;;;;;;;;;;;30.30;54.60;;;;;;5136253;27;19980;-44
2023/06/14 13:17:33;;;;;;;;;;;30.40;53.30;;;;;;5136998;27;20320;-46
2023/06/14 13:19:58;;;;;;;;;;;30.60;54.40;;;;;;5136755;27;19911;-46
2023/06/14 13:22:24;;;;;;;;;;;30.90;53.80;;;;;;5135767;27;19923;-44
2023/06/14 13:24:50;;;;;;;;;;;31.00;53.90;;;;;;5134700;27;19935;-44
2023/06/14 13:27:15;;;;;;;;;;;31.10;53.40;;;;;;5135757;27;20362;-44
2023/06/14 13:29:41;;;;;;;;;;;31.20;53.20;;;;;;5135965;27;19954;-46
2023/06/14 13:32:06;;;;;;;;;;;31.40;52.00;;;;;;5136063;27;19914;-43
2023/06/14 13:34:32;;;;;;;;;;;31.60;52.10;;;;;;5135026;27;19919;-46
2023/06/14 13:36:58;;;;;;;;;;;31.70;51.50;;;;;;5136065;27;20027;-44
2023/06/14 13:39:25;;;;;;;;;;;31.70;52.20;;;;;;5130542;27;20462;-47
2023/06/14 13:41:50;;;;;;;;;;;31.80;53.30;;;;;;5129598;27;19920;-46
2023/06/14 13:44:18;;;;;;;;;;;31.90;50.80;;;;;;5122361;27;20029;-47
2023/06/14 13:46:44;;;;;;;;;;;32.00;51.60;;;;;;5116044;27;20011;-44
2023/06/14 13:49:10;;;;;;;;;;;32.00;51.10;;;;;;5117159;27;20411;-46
2023/06/14 13:51:35;;;;;;;;;;;31.90;49.30;;;;;;5118820;27;19919;-46
2023/06/14 13:54:01;;;;;;;;;;;31.90;49.50;;;;;;5122731;27;19912;-43
2023/06/14 13:56:26;;;;;;;;;;;32.10;51.60;;;;;;5118821;27;19928;-45
2023/06/14 13:58:52;;;;;;;;;;;32.20;50.40;;;;;;5136476;27;19912;-47
2023/06/14 14:01:20;;;;;;;;;;;32.30;49.90;;;;;;5116052;28;19915;-50
2023/06/14 14:03:46;;;;;;;;;;;32.60;49.20;;;;;;5116587;28;19912;-45
2023/06/14 14:06:12;;;;;;;;;;;32.70;50.00;;;;;;5116392;28;19960;-46
2023/06/14 14:08:39;;;;;;;;;;;32.70;49.10;;;;;;5116036;28;20014;-46
2023/06/14 14:11:05;;;;;;;;;;;33.00;49.40;;;;;;5125212;27;19922;-49
2023/06/14 14:13:31;;;;;;;;;;;33.20;49.90;;;;;;5136799;27;19915;-47